createdAt,value
2022-10-27T00:00:53.892Z,16.30
2022-10-27T00:03:21.277Z,16.17
2022-10-27T00:05:49.213Z,14.07
2022-10-27T00:08:22.303Z,14.63
2022-10-27T00:11:00.886Z,16.13
2022-10-27T00:13:28.945Z,16.20
2022-10-27T00:15:58.051Z,16.03
2022-10-27T00:18:25.661Z,17.83
2022-10-27T00:21:08.984Z,15.90
2022-10-27T00:23:38.063Z,17.13
2022-10-27T00:26:07.927Z,15.67
2022-10-27T00:28:35.370Z,16.33
2022-10-27T00:31:11.536Z,18.27
2022-10-27T00:33:38.996Z,15.97
2022-10-27T00:36:13.557Z,12.83
2022-10-27T00:38:41.272Z,15.97
2022-10-27T00:41:22.738Z,12.93
2022-10-27T00:43:50.144Z,16.73
2022-10-27T00:46:39.471Z,13.93
2022-10-27T00:49:22.829Z,14.80
2022-10-27T00:51:59.491Z,16.10
2022-10-27T00:54:29.236Z,13.47
2022-10-27T00:56:58.556Z,13.73
2022-10-27T00:59:26.218Z,13.87
2022-10-27T01:01:55.440Z,15.07
2022-10-27T01:04:53.257Z,12.40
2022-10-27T01:07:22.497Z,14.37
2022-10-27T01:09:50.166Z,13.07
2022-10-27T01:12:17.674Z,14.57
2022-10-27T01:14:45.645Z,14.73
2022-10-27T01:17:54.938Z,14.13
2022-10-27T01:20:49.035Z,14.47
2022-10-27T01:23:34.702Z,15.47
2022-10-27T01:26:17.105Z,12.27
2022-10-27T01:29:05.571Z,14.87
2022-10-27T01:32:02.612Z,13.13
2022-10-27T01:34:34.805Z,13.53
2022-10-27T01:37:09.773Z,12.87
2022-10-27T01:39:48.575Z,13.47
2022-10-27T01:42:25.467Z,13.80
2022-10-27T01:44:56.795Z,12.70
2022-10-27T01:47:25.635Z,12.70
2022-10-27T01:49:56.750Z,14.03
2022-10-27T01:52:47.529Z,15.27
2022-10-27T01:55:34.998Z,13.43
2022-10-27T01:58:30.754Z,13.77
2022-10-27T02:01:26.223Z,16.27
2022-10-27T02:04:01.419Z,12.60
2022-10-27T02:06:50.934Z,13.77
2022-10-27T02:09:31.207Z,16.43
2022-10-27T02:12:04.798Z,14.60
2022-10-27T02:14:34.853Z,15.20
2022-10-27T02:17:04.131Z,15.67
2022-10-27T02:19:37.391Z,13.33
2022-10-27T02:22:05.673Z,18.17
2022-10-27T02:24:33.703Z,14.83
2022-10-27T02:27:10.056Z,13.50
2022-10-27T02:29:48.705Z,15.57
2022-10-27T02:32:23.290Z,15.80
2022-10-27T02:34:51.934Z,13.70
2022-10-27T02:37:25.618Z,14.20
2022-10-27T02:39:53.038Z,14.40
2022-10-27T02:42:20.289Z,13.00
2022-10-27T02:44:47.573Z,13.83
2022-10-27T02:47:14.890Z,13.63
2022-10-27T02:49:42.321Z,13.63
2022-10-27T02:52:09.709Z,13.07
2022-10-27T02:54:37.125Z,12.67
2022-10-27T02:57:04.428Z,13.50
2022-10-27T02:59:31.836Z,15.87
2022-10-27T03:01:59.222Z,15.63
2022-10-27T03:04:26.653Z,14.23
2022-10-27T03:06:54.123Z,14.27
2022-10-27T03:09:21.442Z,17.30
2022-10-27T03:11:48.915Z,15.47
2022-10-27T03:14:16.278Z,13.23
2022-10-27T03:16:43.684Z,17.27
2022-10-27T03:19:11.054Z,18.17
2022-10-27T03:21:38.446Z,16.77
2022-10-27T03:24:06.035Z,13.47
2022-10-27T03:26:33.337Z,14.83
2022-10-27T03:29:01.027Z,17.67
2022-10-27T03:31:28.338Z,18.13
2022-10-27T03:33:55.613Z,17.77
2022-10-27T03:36:22.957Z,14.97
2022-10-27T03:38:50.320Z,17.10
2022-10-27T03:41:17.664Z,17.07
2022-10-27T03:43:45.021Z,21.53
2022-10-27T03:46:12.378Z,19.93
2022-10-27T03:48:39.754Z,18.50
2022-10-27T03:51:07.127Z,16.97
2022-10-27T03:53:34.430Z,16.33
2022-10-27T03:56:01.767Z,18.17
2022-10-27T03:58:29.213Z,60.53
2022-10-27T04:01:02.481Z,57.50
2022-10-27T04:03:29.931Z,18.97
2022-10-27T04:05:57.322Z,17.93
2022-10-27T04:08:24.777Z,15.40
2022-10-27T04:10:52.062Z,17.17
2022-10-27T04:13:19.395Z,15.53
2022-10-27T04:15:46.694Z,16.90
2022-10-27T04:18:13.995Z,16.57
2022-10-27T04:20:41.308Z,14.13
2022-10-27T04:23:08.592Z,14.73
2022-10-27T04:25:36.088Z,15.57
2022-10-27T04:28:08.024Z,15.30
2022-10-27T04:30:36.501Z,15.30
2022-10-27T04:33:03.876Z,18.53
2022-10-27T04:35:31.404Z,16.20
2022-10-27T04:37:59.067Z,16.03
2022-10-27T04:40:26.620Z,21.87
2022-10-27T04:42:54.241Z,16.87
2022-10-27T04:45:22.080Z,16.33
2022-10-27T04:47:49.712Z,16.17
2022-10-27T04:50:18.018Z,15.53
2022-10-27T04:52:59.670Z,18.03
2022-10-27T04:55:28.576Z,20.37
2022-10-27T04:57:56.043Z,15.90
2022-10-27T05:00:24.389Z,17.50
2022-10-27T05:02:59.598Z,18.00
2022-10-27T05:05:28.785Z,16.20
2022-10-27T05:07:58.025Z,17.60
2022-10-27T05:10:25.710Z,23.43
2022-10-27T05:12:53.559Z,18.87
2022-10-27T05:15:21.274Z,26.10
2022-10-27T05:17:49.405Z,16.47
2022-10-27T05:20:17.374Z,16.53
2022-10-27T05:22:44.731Z,15.57
2022-10-27T05:25:12.715Z,16.37
2022-10-27T05:27:40.490Z,16.93
2022-10-27T05:30:09.044Z,17.43
2022-10-27T05:32:36.405Z,16.33
2022-10-27T05:35:03.859Z,19.80
2022-10-27T05:37:31.184Z,19.67
2022-10-27T05:39:58.527Z,16.93
2022-10-27T05:42:25.502Z,19.93
2022-10-27T05:44:52.686Z,19.23
2022-10-27T05:47:20.100Z,19.40
2022-10-27T05:49:47.396Z,22.43
2022-10-27T05:52:14.760Z,17.07
2022-10-27T05:54:42.201Z,19.93
2022-10-27T05:57:09.535Z,18.53
2022-10-27T05:59:37.031Z,16.63
2022-10-27T06:02:04.438Z,19.47
2022-10-27T06:04:31.777Z,17.30
2022-10-27T06:06:59.066Z,17.70
2022-10-27T06:09:26.417Z,18.73
2022-10-27T06:11:53.800Z,17.90
2022-10-27T06:14:21.896Z,17.27
2022-10-27T06:16:51.036Z,17.00
2022-10-27T06:19:18.521Z,16.37
2022-10-27T06:21:45.873Z,20.67
2022-10-27T06:24:13.164Z,18.83
2022-10-27T06:26:40.541Z,18.67
2022-10-27T06:29:08.087Z,19.73
2022-10-27T06:31:35.858Z,19.17
2022-10-27T06:34:03.206Z,20.80
2022-10-27T06:36:30.650Z,22.40
2022-10-27T06:38:58.263Z,23.13
2022-10-27T06:41:26.851Z,23.47
2022-10-27T06:43:54.330Z,20.97
2022-10-27T06:46:21.829Z,25.27
2022-10-27T06:48:49.272Z,22.17
2022-10-27T06:51:16.588Z,21.13
2022-10-27T06:53:43.960Z,29.17
2022-10-27T06:56:11.295Z,22.60
2022-10-27T06:58:41.469Z,24.70
2022-10-27T07:01:09.073Z,24.77
2022-10-27T07:03:38.314Z,20.77
2022-10-27T07:06:06.718Z,20.37
2022-10-27T07:08:34.231Z,25.03
2022-10-27T07:11:01.642Z,24.63
2022-10-27T07:13:28.975Z,20.23
2022-10-27T07:15:56.341Z,20.67
2022-10-27T07:18:23.673Z,20.23
2022-10-27T07:20:53.261Z,21.10
2022-10-27T07:23:21.101Z,22.53
2022-10-27T07:25:51.557Z,20.47
2022-10-27T07:28:19.058Z,22.77
2022-10-27T07:30:48.274Z,24.07
2022-10-27T07:33:16.281Z,19.30
2022-10-27T07:35:47.908Z,22.53
2022-10-27T07:38:15.604Z,18.47
2022-10-27T07:40:42.876Z,18.97
2022-10-27T07:43:10.890Z,17.83
2022-10-27T07:45:41.328Z,18.87
2022-10-27T07:48:14.389Z,18.10
2022-10-27T07:50:43.375Z,18.47
2022-10-27T07:53:11.259Z,16.77
2022-10-27T07:55:38.619Z,15.70
2022-10-27T07:58:15.677Z,16.37
2022-10-27T08:00:46.320Z,16.50
2022-10-27T08:03:26.230Z,16.20
2022-10-27T08:05:53.320Z,15.20
2022-10-27T08:08:21.759Z,13.60
2022-10-27T08:10:50.398Z,12.03
2022-10-27T08:13:18.329Z,15.93
2022-10-27T08:15:45.830Z,14.57
2022-10-27T08:18:13.762Z,13.27
2022-10-27T08:20:47.150Z,12.53
2022-10-27T08:23:18.001Z,13.73
2022-10-27T08:25:45.511Z,13.20
2022-10-27T08:28:14.715Z,12.13
2022-10-27T08:30:50.677Z,13.50
2022-10-27T08:33:21.164Z,11.93
2022-10-27T08:35:50.240Z,13.07
2022-10-27T08:38:18.388Z,12.87
2022-10-27T08:41:21.155Z,11.97
2022-10-27T08:44:39.836Z,12.13
2022-10-27T08:47:19.160Z,12.53
2022-10-27T08:50:12.461Z,13.60
2022-10-27T08:53:05.266Z,12.63
2022-10-27T08:55:56.430Z,10.30
2022-10-27T08:58:39.869Z,11.97
2022-10-27T09:01:09.672Z,19.50
2022-10-27T09:04:07.007Z,43.37
2022-10-27T09:06:58.498Z,11.17
2022-10-27T09:09:58.749Z,9.13
2022-10-27T09:12:31.377Z,11.30
2022-10-27T09:15:19.632Z,9.90
2022-10-27T09:18:00.893Z,9.87
2022-10-27T09:20:57.653Z,10.03
2022-10-27T09:23:41.636Z,9.87
2022-10-27T09:26:10.186Z,9.23
2022-10-27T09:28:49.236Z,9.00
2022-10-27T09:31:27.876Z,9.03
2022-10-27T09:34:06.995Z,8.30
2022-10-27T09:36:33.960Z,9.17
2022-10-27T09:39:01.173Z,9.03
2022-10-27T09:41:28.230Z,9.53
2022-10-27T09:43:58.664Z,9.27
2022-10-27T09:46:29.949Z,7.40
2022-10-27T09:49:09.851Z,8.60
2022-10-27T09:51:53.232Z,6.63
2022-10-27T09:54:39.282Z,8.77
2022-10-27T09:57:19.069Z,6.20
2022-10-27T10:00:24.170Z,7.77
2022-10-27T10:05:38.116Z,5.43
2022-10-27T10:08:25.774Z,7.33
2022-10-27T10:10:59.288Z,5.83
2022-10-27T10:13:37.355Z,7.27
2022-10-27T10:16:10.358Z,7.93
2022-10-27T10:18:45.841Z,5.73
2022-10-27T10:21:14.708Z,5.43
2022-10-27T10:23:51.856Z,6.63
2022-10-27T10:26:22.779Z,5.93
2022-10-27T10:28:53.149Z,5.53
2022-10-27T10:31:27.058Z,5.60
2022-10-27T10:34:03.089Z,6.17
2022-10-27T10:36:35.248Z,5.27
2022-10-27T10:39:20.655Z,5.70
2022-10-27T10:42:11.091Z,6.07
2022-10-27T10:44:38.983Z,6.43
2022-10-27T10:47:25.942Z,5.50
2022-10-27T10:49:58.677Z,6.00
2022-10-27T10:52:33.822Z,5.87
2022-10-27T10:55:15.286Z,5.63
2022-10-27T10:57:48.285Z,5.03
2022-10-27T11:00:17.792Z,5.03
2022-10-27T11:03:01.627Z,5.03
2022-10-27T11:05:37.102Z,5.43
2022-10-27T11:08:06.359Z,7.20
2022-10-27T11:10:40.504Z,5.30
2022-10-27T11:13:19.236Z,6.50
2022-10-27T11:15:55.369Z,4.80
2022-10-27T11:18:33.272Z,4.97
2022-10-27T11:21:25.661Z,4.07
2022-10-27T11:23:58.368Z,4.70
2022-10-27T11:26:37.197Z,5.27
2022-10-27T11:29:26.035Z,4.73
2022-10-27T11:32:33.620Z,5.60
2022-10-27T11:35:25.857Z,4.22
2022-10-27T11:38:23.322Z,4.00
2022-10-27T11:41:16.697Z,3.93
2022-10-27T11:44:00.122Z,3.55
2022-10-27T11:46:41.595Z,3.10
2022-10-27T11:49:45.417Z,4.17
2022-10-27T11:52:44.180Z,3.10
2022-10-27T11:55:15.523Z,3.57
2022-10-27T11:58:16.232Z,3.57
2022-10-27T12:01:14.951Z,3.87
2022-10-27T12:04:11.246Z,4.30
2022-10-27T12:06:44.502Z,2.80
2022-10-27T12:09:45.880Z,2.97
2022-10-27T12:12:19.191Z,3.65
2022-10-27T12:15:18.976Z,3.13
2022-10-27T12:18:04.746Z,3.67
2022-10-27T12:20:39.102Z,3.30
2022-10-27T12:23:12.782Z,3.20
2022-10-27T12:26:08.994Z,3.03
2022-10-27T12:28:37.150Z,4.20
2022-10-27T12:31:09.492Z,3.53
2022-10-27T12:33:48.086Z,2.80
2022-10-27T12:36:23.592Z,2.70
2022-10-27T12:39:18.660Z,2.43
2022-10-27T12:42:01.154Z,2.30
2022-10-27T12:44:37.527Z,2.23
2022-10-27T12:47:09.881Z,2.43
2022-10-27T12:50:05.209Z,2.33
2022-10-27T12:52:39.098Z,2.83
2022-10-27T12:55:18.720Z,2.27
2022-10-27T12:58:12.402Z,2.00
2022-10-27T13:00:52.579Z,2.00
2022-10-27T13:04:04.764Z,3.57
2022-10-27T13:06:51.868Z,2.63
2022-10-27T13:09:54.712Z,2.30
2022-10-27T13:12:39.707Z,2.80
2022-10-27T13:15:40.196Z,2.60
2022-10-27T13:18:51.536Z,2.23
2022-10-27T13:21:37.574Z,3.63
2022-10-27T13:24:07.931Z,3.53
2022-10-27T13:26:54.934Z,2.50
2022-10-27T13:29:36.909Z,3.33
2022-10-27T13:32:17.370Z,2.60
2022-10-27T13:35:04.676Z,2.03
2022-10-27T13:37:49.940Z,2.37
2022-10-27T13:40:22.801Z,1.90
2022-10-27T13:42:55.664Z,2.97
2022-10-27T13:45:37.279Z,1.73
2022-10-27T13:48:24.929Z,2.20
2022-10-27T13:50:57.670Z,3.00
2022-10-27T13:53:28.072Z,3.10
2022-10-27T13:56:30.616Z,3.40
2022-10-27T13:59:21.867Z,1.73
2022-10-27T14:01:58.310Z,1.90
2022-10-27T14:04:51.201Z,2.50
2022-10-27T14:07:19.734Z,1.87
2022-10-27T14:09:50.824Z,1.83
2022-10-27T14:12:34.978Z,2.70
2022-10-27T14:15:11.647Z,1.97
2022-10-27T14:17:43.388Z,4.60
2022-10-27T14:20:38.067Z,1.73
2022-10-27T14:23:15.353Z,3.17
2022-10-27T14:25:42.895Z,2.43
2022-10-27T14:28:22.806Z,1.70
2022-10-27T14:31:10.511Z,1.90
2022-10-27T14:33:38.153Z,2.97
2022-10-27T14:36:15.787Z,2.10
2022-10-27T14:38:54.732Z,2.23
2022-10-27T14:41:28.842Z,1.80
2022-10-27T14:44:01.152Z,2.27
2022-10-27T14:46:34.777Z,2.00
2022-10-27T14:49:06.140Z,1.43
2022-10-27T14:51:37.859Z,1.40
2022-10-27T14:56:39.198Z,1.83
2022-10-27T14:59:21.952Z,2.00
2022-10-27T15:01:50.331Z,1.93
2022-10-27T15:04:28.901Z,1.70
2022-10-27T15:07:00.542Z,1.97
2022-10-27T15:09:39.799Z,1.97
2022-10-27T15:12:23.913Z,3.57
2022-10-27T15:14:52.472Z,3.03
2022-10-27T15:17:32.224Z,3.07
2022-10-27T15:20:02.092Z,2.00
2022-10-27T15:22:30.120Z,2.17
2022-10-27T15:24:59.050Z,3.10
2022-10-27T15:27:34.506Z,2.30
2022-10-27T15:30:02.738Z,3.23
2022-10-27T15:32:38.944Z,2.20
2022-10-27T15:35:30.045Z,2.47
2022-10-27T15:37:58.878Z,3.23
2022-10-27T15:40:29.073Z,2.17
2022-10-27T15:42:57.151Z,2.87
2022-10-27T15:45:37.726Z,4.00
2022-10-27T15:48:05.597Z,27.83
2022-10-27T15:50:39.659Z,4.63
2022-10-27T15:53:20.073Z,2.27
2022-10-27T15:56:03.840Z,2.20
2022-10-27T15:58:38.365Z,3.43
2022-10-27T16:01:48.089Z,2.40
2022-10-27T16:04:25.418Z,2.10
2022-10-27T16:09:39.600Z,2.83
2022-10-27T16:12:31.239Z,3.47
2022-10-27T16:15:02.646Z,2.67
2022-10-27T16:17:59.038Z,2.80
2022-10-27T16:20:32.630Z,3.30
2022-10-27T16:23:00.397Z,6.43
2022-10-27T16:25:31.500Z,4.93
2022-10-27T16:28:04.229Z,4.97
2022-10-27T16:30:31.644Z,4.03
2022-10-27T16:33:04.260Z,3.63
2022-10-27T16:35:31.700Z,3.80
2022-10-27T16:38:01.493Z,3.80
2022-10-27T16:40:29.291Z,3.60
2022-10-27T16:42:57.026Z,4.60
2022-10-27T16:45:24.815Z,3.17
2022-10-27T16:47:54.264Z,4.53
2022-10-27T16:50:22.190Z,5.60
2022-10-27T16:52:56.373Z,4.67
2022-10-27T16:55:24.450Z,4.00
2022-10-27T16:57:57.002Z,3.70
2022-10-27T17:00:24.872Z,6.00
2022-10-27T17:02:52.321Z,5.77
2022-10-27T17:05:19.689Z,5.50
2022-10-27T17:07:48.108Z,5.13
2022-10-27T17:10:16.931Z,5.77
2022-10-27T17:12:44.884Z,5.97
2022-10-27T17:15:12.808Z,16.30
2022-10-27T17:17:43.791Z,18.87
2022-10-27T17:20:11.451Z,9.50
2022-10-27T17:22:39.212Z,5.50
2022-10-27T17:25:07.203Z,6.43
2022-10-27T17:27:34.591Z,6.57
2022-10-27T17:30:02.301Z,6.47
2022-10-27T17:32:30.073Z,6.27
2022-10-27T17:34:57.790Z,7.07
2022-10-27T17:37:25.160Z,5.80
2022-10-27T17:39:52.620Z,5.23
2022-10-27T17:42:20.009Z,7.40
2022-10-27T17:44:47.767Z,5.60
2022-10-27T17:47:15.490Z,8.40
2022-10-27T17:49:42.862Z,7.40
2022-10-27T17:52:10.190Z,6.37
2022-10-27T17:54:39.030Z,9.20
2022-10-27T17:57:08.342Z,9.27
2022-10-27T17:59:36.295Z,7.97
2022-10-27T18:02:04.244Z,8.07
2022-10-27T18:04:32.157Z,7.93
2022-10-27T18:07:00.004Z,8.23
2022-10-27T18:09:27.526Z,7.83
2022-10-27T18:11:55.275Z,9.33
2022-10-27T18:14:23.767Z,8.63
2022-10-27T18:16:51.882Z,8.83
2022-10-27T18:19:19.605Z,8.33
2022-10-27T18:21:48.462Z,9.43
2022-10-27T18:24:17.130Z,8.63
2022-10-27T18:26:48.090Z,9.60
2022-10-27T18:29:18.507Z,11.17
2022-10-27T18:31:47.611Z,8.63
2022-10-27T18:34:16.847Z,8.87
2022-10-27T18:36:45.444Z,8.37
2022-10-27T18:39:19.435Z,10.37
2022-10-27T18:41:49.076Z,8.03
2022-10-27T18:44:17.114Z,8.37
2022-10-27T18:46:44.694Z,9.23
2022-10-27T18:49:20.322Z,9.43
2022-10-27T18:51:53.156Z,9.17
2022-10-27T18:54:20.503Z,9.23
2022-10-27T18:56:48.028Z,10.03
2022-10-27T18:59:15.606Z,11.43
2022-10-27T19:01:44.233Z,12.23
2022-10-27T19:04:12.111Z,11.50
2022-10-27T19:06:39.904Z,8.47
2022-10-27T19:09:07.468Z,10.47
2022-10-27T19:11:36.623Z,8.67
2022-10-27T19:14:04.643Z,7.00
2022-10-27T19:16:32.462Z,9.93
2022-10-27T19:19:01.525Z,9.63
2022-10-27T19:21:30.298Z,8.57
2022-10-27T19:24:00.229Z,10.13
2022-10-27T19:26:30.183Z,8.50
2022-10-27T19:28:58.754Z,9.23
2022-10-27T19:31:29.644Z,12.23
2022-10-27T19:33:58.698Z,11.93
2022-10-27T19:36:29.660Z,10.53
2022-10-27T19:38:59.155Z,10.67
2022-10-27T19:41:29.639Z,9.93
2022-10-27T19:43:58.534Z,10.23
2022-10-27T19:46:27.562Z,40.63
2022-10-27T19:48:57.412Z,14.63
2022-10-27T19:51:28.156Z,9.40
2022-10-27T19:53:57.557Z,10.63
2022-10-27T19:56:28.568Z,8.43
2022-10-27T19:59:01.294Z,9.20
2022-10-27T20:01:31.302Z,9.80
2022-10-27T20:04:07.526Z,10.10
2022-10-27T20:06:35.485Z,9.87
2022-10-27T20:09:03.640Z,8.93
2022-10-27T20:11:33.241Z,9.70
2022-10-27T20:14:02.645Z,11.77
2022-10-27T20:16:33.458Z,9.63
2022-10-27T20:19:15.710Z,10.70
2022-10-27T20:21:43.156Z,10.17
2022-10-27T20:24:13.784Z,12.20
2022-10-27T20:26:46.532Z,10.33
2022-10-27T20:29:14.889Z,12.60
2022-10-27T20:31:45.006Z,11.60
2022-10-27T20:34:13.292Z,10.60
2022-10-27T20:36:42.195Z,19.27
2022-10-27T20:39:11.531Z,13.47
2022-10-27T20:41:39.364Z,11.90
2022-10-27T20:44:07.560Z,12.90
2022-10-27T20:46:35.572Z,10.93
2022-10-27T20:49:03.351Z,11.13
2022-10-27T20:51:32.556Z,14.23
2022-10-27T20:54:00.845Z,12.77
2022-10-27T20:56:30.696Z,11.30
2022-10-27T20:58:58.285Z,11.07
2022-10-27T21:01:29.170Z,10.87
2022-10-27T21:04:02.892Z,13.97
2022-10-27T21:06:32.758Z,13.47
2022-10-27T21:09:05.431Z,13.27
2022-10-27T21:11:33.047Z,15.10
2022-10-27T21:14:02.202Z,13.87
2022-10-27T21:16:30.546Z,15.37
2022-10-27T21:19:00.556Z,14.63
2022-10-27T21:21:29.836Z,13.30
2022-10-27T21:23:59.751Z,13.27
2022-10-27T21:26:27.493Z,13.50
2022-10-27T21:28:57.008Z,12.93
2022-10-27T21:31:26.887Z,11.80
2022-10-27T21:33:54.516Z,13.60
2022-10-27T21:36:22.134Z,14.23
2022-10-27T21:38:51.046Z,11.70
2022-10-27T21:41:21.112Z,13.23
2022-10-27T21:43:50.791Z,13.17
2022-10-27T21:46:20.581Z,11.60
2022-10-27T21:48:48.278Z,14.50
2022-10-27T21:51:16.493Z,13.30
2022-10-27T21:53:44.074Z,14.20
2022-10-27T21:56:12.262Z,12.37
2022-10-27T21:58:40.401Z,15.57
2022-10-27T22:01:16.723Z,17.60
2022-10-27T22:03:44.930Z,17.17
2022-10-27T22:06:20.939Z,13.30
2022-10-27T22:08:49.173Z,14.73
2022-10-27T22:11:25.381Z,15.87
2022-10-27T22:13:53.246Z,17.57
2022-10-27T22:16:22.737Z,16.23
2022-10-27T22:18:55.313Z,15.00
2022-10-27T22:21:23.301Z,13.97
2022-10-27T22:23:50.665Z,16.90
2022-10-27T22:26:20.484Z,16.63
2022-10-27T22:28:49.140Z,15.60
2022-10-27T22:31:19.480Z,15.10
2022-10-27T22:33:47.355Z,14.60
2022-10-27T22:36:17.313Z,14.23
2022-10-27T22:38:45.787Z,15.67
2022-10-27T22:41:15.465Z,14.63
2022-10-27T22:43:43.993Z,14.90
2022-10-27T22:46:26.484Z,18.33
2022-10-27T22:48:54.236Z,15.30
2022-10-27T22:51:23.506Z,16.87
2022-10-27T22:53:53.063Z,15.13
2022-10-27T22:56:22.825Z,15.87
2022-10-27T22:58:53.042Z,16.07
2022-10-27T23:01:23.621Z,16.40
2022-10-27T23:03:59.694Z,16.23
2022-10-27T23:06:29.704Z,16.17
2022-10-27T23:09:02.726Z,16.53
2022-10-27T23:11:32.894Z,15.30
2022-10-27T23:14:00.491Z,16.10
2022-10-27T23:16:29.410Z,14.20
2022-10-27T23:18:58.157Z,15.73
2022-10-27T23:21:26.224Z,18.27
2022-10-27T23:23:55.107Z,17.23
2022-10-27T23:26:25.196Z,15.50
2022-10-27T23:28:55.941Z,14.57
2022-10-27T23:31:24.345Z,16.50
2022-10-27T23:33:57.023Z,16.23
2022-10-27T23:36:25.301Z,18.07
2022-10-27T23:38:53.659Z,16.10
2022-10-27T23:41:21.548Z,17.37
2022-10-27T23:43:53.611Z,15.37
2022-10-27T23:46:22.373Z,13.87
2022-10-27T23:48:49.716Z,16.20
2022-10-27T23:51:17.100Z,14.87
2022-10-27T23:53:44.429Z,16.83
2022-10-27T23:56:12.854Z,16.43
2022-10-27T23:58:42.462Z,14.67
